createdAt,value
2022-08-21T00:00:17.052Z,19.40
2022-08-21T00:02:48.697Z,18.70
2022-08-21T00:05:16.048Z,16.58
2022-08-21T00:07:42.932Z,17.85
2022-08-21T00:10:10.392Z,16.60
2022-08-21T00:12:37.311Z,15.60
2022-08-21T00:15:06.146Z,16.40
2022-08-21T00:17:35.621Z,16.20
2022-08-21T00:20:03.948Z,15.98
2022-08-21T00:22:30.788Z,15.35
2022-08-21T00:24:57.628Z,13.53
2022-08-21T00:27:24.467Z,13.93
2022-08-21T00:29:51.354Z,12.48
2022-08-21T00:32:25.183Z,10.25
2022-08-21T00:34:52.188Z,10.20
2022-08-21T00:37:19.244Z,10.50
2022-08-21T00:39:46.286Z,10.25
2022-08-21T00:42:16.749Z,10.02
2022-08-21T00:44:47.508Z,9.60
2022-08-21T00:47:14.340Z,9.75
2022-08-21T00:49:41.269Z,10.17
2022-08-21T00:52:10.031Z,9.23
2022-08-21T00:54:36.886Z,9.10
2022-08-21T00:57:17.033Z,8.75
2022-08-21T00:59:45.217Z,8.77
2022-08-21T01:02:12.267Z,8.80
2022-08-21T01:04:39.348Z,9.40
2022-08-21T01:07:06.276Z,9.55
2022-08-21T01:09:33.256Z,10.55
2022-08-21T01:12:00.629Z,10.85
2022-08-21T01:14:27.529Z,10.27
2022-08-21T01:16:54.374Z,10.50
2022-08-21T01:19:21.667Z,10.38
2022-08-21T01:21:48.655Z,10.65
2022-08-21T01:24:15.550Z,9.65
2022-08-21T01:26:43.190Z,10.07
2022-08-21T01:29:11.119Z,10.27
2022-08-21T01:31:38.310Z,9.45
2022-08-21T01:34:05.350Z,9.35
2022-08-21T01:36:32.238Z,9.70
2022-08-21T01:38:59.131Z,9.23
2022-08-21T01:41:26.089Z,9.85
2022-08-21T01:43:52.949Z,10.45
2022-08-21T01:46:19.849Z,9.80
2022-08-21T01:48:46.729Z,9.63
2022-08-21T01:51:13.634Z,12.30
2022-08-21T01:53:40.497Z,14.70
2022-08-21T01:56:12.479Z,14.00
2022-08-21T01:58:43.290Z,16.10
2022-08-21T02:01:10.586Z,16.70
2022-08-21T02:03:37.996Z,16.77
2022-08-21T02:06:06.216Z,15.48
2022-08-21T02:08:33.472Z,14.52
2022-08-21T02:11:01.028Z,14.77
2022-08-21T02:13:27.946Z,11.20
2022-08-21T02:15:54.871Z,11.50
2022-08-21T02:18:21.748Z,10.02
2022-08-21T02:20:49.431Z,8.45
2022-08-21T02:23:26.591Z,8.68
2022-08-21T02:25:58.832Z,8.52
2022-08-21T02:28:25.933Z,8.13
2022-08-21T02:30:54.831Z,7.00
2022-08-21T02:33:21.950Z,8.18
2022-08-21T02:35:49.069Z,8.05
2022-08-21T02:38:18.729Z,7.88
2022-08-21T02:40:48.282Z,7.80
2022-08-21T02:43:18.769Z,8.70
2022-08-21T02:45:45.752Z,9.00
2022-08-21T02:48:14.452Z,9.52
2022-08-21T02:50:46.792Z,9.48
2022-08-21T02:53:17.706Z,9.23
2022-08-21T02:55:48.449Z,8.98
2022-08-21T02:58:16.994Z,9.10
2022-08-21T03:00:44.777Z,10.02
2022-08-21T03:03:11.661Z,9.50
2022-08-21T03:05:38.790Z,10.00
2022-08-21T03:08:10.316Z,10.43
2022-08-21T03:10:41.630Z,10.57
2022-08-21T03:13:08.733Z,9.93
2022-08-21T03:15:35.591Z,9.82
2022-08-21T03:18:02.930Z,9.83
2022-08-21T03:20:30.031Z,10.00
2022-08-21T03:22:57.159Z,10.07
2022-08-21T03:25:39.513Z,10.63
2022-08-21T03:28:13.030Z,10.00
2022-08-21T03:30:44.974Z,10.13
2022-08-21T03:33:13.023Z,10.15
2022-08-21T03:35:43.549Z,10.00
2022-08-21T03:38:10.472Z,10.77
2022-08-21T03:40:37.335Z,10.55
2022-08-21T03:43:04.210Z,10.07
2022-08-21T03:45:30.973Z,10.20
2022-08-21T03:47:59.830Z,9.93
2022-08-21T03:50:29.396Z,11.35
2022-08-21T03:52:56.748Z,10.55
2022-08-21T03:55:24.129Z,10.13
2022-08-21T03:57:51.043Z,10.80
2022-08-21T04:00:18.570Z,10.10
2022-08-21T04:02:45.617Z,10.07
2022-08-21T04:05:12.991Z,10.13
2022-08-21T04:07:39.852Z,10.80
2022-08-21T04:10:07.672Z,9.52
2022-08-21T04:12:34.573Z,9.90
2022-08-21T04:15:02.940Z,10.48
2022-08-21T04:17:29.854Z,10.25
2022-08-21T04:19:57.469Z,11.00
2022-08-21T04:22:24.759Z,9.90
2022-08-21T04:24:51.609Z,9.68
2022-08-21T04:27:18.532Z,10.00
2022-08-21T04:29:45.393Z,9.30
2022-08-21T04:32:12.249Z,10.27
2022-08-21T04:34:39.088Z,10.02
2022-08-21T04:37:05.968Z,9.43
2022-08-21T04:39:32.854Z,9.68
2022-08-21T04:41:59.718Z,9.48
2022-08-21T04:44:26.543Z,9.00
2022-08-21T04:46:53.409Z,9.40
2022-08-21T04:49:20.211Z,8.85
2022-08-21T04:51:47.069Z,9.45
2022-08-21T04:54:16.772Z,8.80
2022-08-21T04:56:48.612Z,8.90
2022-08-21T04:59:34.670Z,8.50
2022-08-21T05:02:01.862Z,9.10
2022-08-21T05:04:31.313Z,9.02
2022-08-21T05:06:59.351Z,8.85
2022-08-21T05:09:26.228Z,7.83
2022-08-21T05:11:53.336Z,9.05
2022-08-21T05:14:20.632Z,8.43
2022-08-21T05:16:47.861Z,8.70
2022-08-21T05:19:14.749Z,8.35
2022-08-21T05:21:43.551Z,9.00
2022-08-21T05:24:10.589Z,9.60
2022-08-21T05:26:45.411Z,8.60
2022-08-21T05:29:14.788Z,8.77
2022-08-21T05:31:41.791Z,9.38
2022-08-21T05:34:09.187Z,9.67
2022-08-21T05:36:37.134Z,9.23
2022-08-21T05:39:04.311Z,9.45
2022-08-21T05:41:31.232Z,9.27
2022-08-21T05:44:01.315Z,8.43
2022-08-21T05:46:28.210Z,7.63
2022-08-21T05:48:55.089Z,9.00
2022-08-21T05:51:22.021Z,8.27
2022-08-21T05:53:48.913Z,8.23
2022-08-21T05:56:15.952Z,8.10
2022-08-21T05:58:42.990Z,8.50
2022-08-21T06:01:10.206Z,8.90
2022-08-21T06:03:39.689Z,8.05
2022-08-21T06:06:06.608Z,7.90
2022-08-21T06:08:33.554Z,7.55
2022-08-21T06:11:00.812Z,7.50
2022-08-21T06:13:27.874Z,7.60
2022-08-21T06:16:16.150Z,6.47
2022-08-21T06:18:43.688Z,6.70
2022-08-21T06:21:10.749Z,6.20
2022-08-21T06:23:37.768Z,6.30
2022-08-21T06:26:05.808Z,6.45
2022-08-21T06:28:32.989Z,6.53
2022-08-21T06:31:00.019Z,6.25
2022-08-21T06:33:31.902Z,6.38
2022-08-21T06:35:59.497Z,6.53
2022-08-21T06:38:26.405Z,5.95
2022-08-21T06:40:53.496Z,5.50
2022-08-21T06:43:20.375Z,5.95
2022-08-21T06:45:47.254Z,6.40
2022-08-21T06:48:18.950Z,5.80
2022-08-21T06:50:46.712Z,5.88
2022-08-21T06:53:17.469Z,5.78
2022-08-21T06:55:44.408Z,6.22
2022-08-21T06:58:11.487Z,5.75
2022-08-21T07:00:46.356Z,5.57
2022-08-21T07:03:20.866Z,5.15
2022-08-21T07:05:47.714Z,5.20
2022-08-21T07:08:14.613Z,5.20
2022-08-21T07:10:41.451Z,4.70
2022-08-21T07:13:08.488Z,5.60
2022-08-21T07:15:35.368Z,4.80
2022-08-21T07:18:02.387Z,5.22
2022-08-21T07:20:30.272Z,5.35
2022-08-21T07:22:59.026Z,5.70
2022-08-21T07:25:26.080Z,5.97
2022-08-21T07:27:53.089Z,5.85
2022-08-21T07:30:20.010Z,6.50
2022-08-21T07:32:46.927Z,6.00
2022-08-21T07:35:13.848Z,6.10
2022-08-21T07:37:40.647Z,6.77
2022-08-21T07:40:08.230Z,6.43
2022-08-21T07:42:35.133Z,6.32
2022-08-21T07:45:02.064Z,6.28
2022-08-21T07:47:41.624Z,5.60
2022-08-21T07:50:09.944Z,6.60
2022-08-21T07:52:36.814Z,6.35
2022-08-21T07:55:06.342Z,6.28
2022-08-21T07:57:34.109Z,5.50
2022-08-21T08:00:00.935Z,5.35
2022-08-21T08:02:29.538Z,5.80
2022-08-21T08:05:00.932Z,5.80
2022-08-21T08:07:27.893Z,5.68
2022-08-21T08:09:54.775Z,5.50
2022-08-21T08:12:21.801Z,4.93
2022-08-21T08:14:48.713Z,5.70
2022-08-21T08:17:15.618Z,4.55
2022-08-21T08:19:42.493Z,4.40
2022-08-21T08:22:16.575Z,4.25
2022-08-21T08:24:43.651Z,4.40
2022-08-21T08:27:10.467Z,4.30
2022-08-21T08:29:37.288Z,3.78
2022-08-21T08:32:08.277Z,4.70
2022-08-21T08:34:38.773Z,4.55
2022-08-21T08:37:06.248Z,3.95
2022-08-21T08:39:34.933Z,4.83
2022-08-21T08:42:05.028Z,4.43
2022-08-21T08:44:51.910Z,4.20
2022-08-21T08:47:18.869Z,4.88
2022-08-21T08:49:56.467Z,4.15
2022-08-21T08:52:31.864Z,4.60
2022-08-21T08:55:06.052Z,4.43
2022-08-21T08:57:33.209Z,4.30
2022-08-21T09:00:05.171Z,4.03
2022-08-21T09:02:34.430Z,3.70
2022-08-21T09:05:01.494Z,4.17
2022-08-21T09:07:56.053Z,3.88
2022-08-21T09:10:42.377Z,3.67
2022-08-21T09:13:15.857Z,4.18
2022-08-21T09:15:57.378Z,3.70
2022-08-21T09:18:34.093Z,3.30
2022-08-21T09:21:11.097Z,4.20
2022-08-21T09:24:01.563Z,3.78
2022-08-21T09:26:49.992Z,4.40
2022-08-21T09:29:16.870Z,4.00
2022-08-21T09:31:44.180Z,3.67
2022-08-21T09:34:13.135Z,3.85
2022-08-21T09:36:44.093Z,3.92
2022-08-21T09:39:11.950Z,4.35
2022-08-21T09:41:39.173Z,3.85
2022-08-21T09:44:07.425Z,4.43
2022-08-21T09:46:34.507Z,4.90
2022-08-21T09:49:02.677Z,4.25
2022-08-21T09:51:31.811Z,5.43
2022-08-21T09:54:13.629Z,4.70
2022-08-21T09:57:11.051Z,4.57
2022-08-21T09:59:38.965Z,4.07
2022-08-21T10:02:23.151Z,3.70
2022-08-21T10:04:55.069Z,3.78
2022-08-21T10:07:23.226Z,4.07
2022-08-21T10:10:14.978Z,4.50
2022-08-21T10:13:29.151Z,3.83
2022-08-21T10:16:26.790Z,4.07
2022-08-21T10:19:15.994Z,4.20
2022-08-21T10:22:19.276Z,3.97
2022-08-21T10:24:54.192Z,4.27
2022-08-21T10:27:30.077Z,4.30
2022-08-21T10:30:08.372Z,3.60
2022-08-21T10:32:48.515Z,3.97
2022-08-21T10:35:40.794Z,3.67
2022-08-21T10:38:58.703Z,3.30
2022-08-21T10:42:08.698Z,3.25
2022-08-21T10:44:45.449Z,3.30
2022-08-21T10:47:26.932Z,3.20
2022-08-21T10:50:06.922Z,4.25
2022-08-21T10:52:36.650Z,4.17
2022-08-21T10:55:31.414Z,3.42
2022-08-21T10:58:05.636Z,3.17
2022-08-21T11:00:43.971Z,3.75
2022-08-21T11:03:35.669Z,3.58
2022-08-21T11:06:20.770Z,2.93
2022-08-21T11:09:05.429Z,3.35
2022-08-21T11:11:47.021Z,3.30
2022-08-21T11:14:50.026Z,3.22
2022-08-21T11:17:21.989Z,3.22
2022-08-21T11:19:51.063Z,2.77
2022-08-21T11:22:30.143Z,2.97
2022-08-21T11:25:19.230Z,3.00
2022-08-21T11:27:56.537Z,3.58
2022-08-21T11:30:24.709Z,3.50
2022-08-21T11:33:10.173Z,3.43
2022-08-21T11:35:58.410Z,3.40
2022-08-21T11:38:43.620Z,3.20
2022-08-21T11:41:31.788Z,3.30
2022-08-21T11:44:01.412Z,3.50
2022-08-21T11:46:49.928Z,3.47
2022-08-21T11:49:40.697Z,3.33
2022-08-21T11:52:10.349Z,3.30
2022-08-21T11:54:44.348Z,3.85
2022-08-21T11:57:23.408Z,3.50
2022-08-21T11:59:54.829Z,3.77
2022-08-21T12:02:24.835Z,3.40
2022-08-21T12:04:55.277Z,3.13
2022-08-21T12:07:43.030Z,3.10
2022-08-21T12:10:14.729Z,3.08
2022-08-21T12:12:42.762Z,3.17
2022-08-21T12:15:21.837Z,3.13
2022-08-21T12:18:01.634Z,3.00
2022-08-21T12:20:39.169Z,3.50
2022-08-21T12:23:19.790Z,3.05
2022-08-21T12:26:15.491Z,2.50
2022-08-21T12:28:42.399Z,2.92
2022-08-21T12:31:24.448Z,2.83
2022-08-21T12:33:59.964Z,3.10
2022-08-21T12:36:51.095Z,2.65
2022-08-21T12:39:23.955Z,2.20
2022-08-21T12:42:01.614Z,2.80
2022-08-21T12:44:56.909Z,2.95
2022-08-21T12:47:45.108Z,3.10
2022-08-21T12:50:28.247Z,2.55
2022-08-21T12:53:24.330Z,2.53
2022-08-21T12:55:51.230Z,3.13
2022-08-21T12:58:22.393Z,2.70
2022-08-21T13:00:54.775Z,2.85
2022-08-21T13:03:22.839Z,2.92
2022-08-21T13:05:52.450Z,2.33
2022-08-21T13:08:20.190Z,2.88
2022-08-21T13:10:47.088Z,2.72
2022-08-21T13:13:28.096Z,2.90
2022-08-21T13:16:08.640Z,2.72
2022-08-21T13:18:37.908Z,2.90
2022-08-21T13:21:15.117Z,2.65
2022-08-21T13:23:42.120Z,2.58
2022-08-21T13:26:18.744Z,2.92
2022-08-21T13:28:48.537Z,2.95
2022-08-21T13:31:25.388Z,2.30
2022-08-21T13:33:52.603Z,2.22
2022-08-21T13:36:27.310Z,2.20
2022-08-21T13:38:55.296Z,2.60
2022-08-21T13:41:26.837Z,1.80
2022-08-21T13:44:05.312Z,2.37
2022-08-21T13:46:35.048Z,2.55
2022-08-21T13:49:02.870Z,2.10
2022-08-21T13:51:30.451Z,2.15
2022-08-21T13:53:57.377Z,2.45
2022-08-21T13:56:32.750Z,2.30
2022-08-21T13:59:00.789Z,2.67
2022-08-21T14:01:34.969Z,2.33
2022-08-21T14:04:16.236Z,2.40
2022-08-21T14:06:43.068Z,2.67
2022-08-21T14:09:16.300Z,2.40
2022-08-21T14:11:43.162Z,2.42
2022-08-21T14:14:33.140Z,2.47
2022-08-21T14:17:06.331Z,2.80
2022-08-21T14:19:52.073Z,2.70
2022-08-21T14:22:39.068Z,2.30
2022-08-21T14:25:31.549Z,2.42
2022-08-21T14:28:20.902Z,2.50
2022-08-21T14:30:48.513Z,2.20
2022-08-21T14:33:32.266Z,2.22
2022-08-21T14:35:59.529Z,2.30
2022-08-21T14:38:27.835Z,2.80
2022-08-21T14:40:57.414Z,2.10
2022-08-21T14:43:24.264Z,2.63
2022-08-21T14:45:51.238Z,2.60
2022-08-21T14:48:18.153Z,2.57
2022-08-21T14:50:45.109Z,2.75
2022-08-21T14:53:12.198Z,2.70
2022-08-21T14:55:58.207Z,2.47
2022-08-21T14:58:25.599Z,2.60
2022-08-21T15:00:53.312Z,2.50
2022-08-21T15:03:20.322Z,2.10
2022-08-21T15:05:47.199Z,2.10
2022-08-21T15:08:14.117Z,1.98
2022-08-21T15:10:52.599Z,2.13
2022-08-21T15:13:28.058Z,2.20
2022-08-21T15:15:55.117Z,1.80
2022-08-21T15:18:22.207Z,1.98
2022-08-21T15:20:49.476Z,2.00
2022-08-21T15:23:16.503Z,1.95
2022-08-21T15:25:44.548Z,2.03
2022-08-21T15:28:11.827Z,2.63
2022-08-21T15:30:39.349Z,2.22
2022-08-21T15:33:06.432Z,2.42
2022-08-21T15:35:33.224Z,2.00
2022-08-21T15:38:00.428Z,2.50
2022-08-21T15:40:27.533Z,2.80
2022-08-21T15:43:01.011Z,2.38
2022-08-21T15:45:29.325Z,2.72
2022-08-21T15:47:56.492Z,3.85
2022-08-21T15:50:23.811Z,2.93
2022-08-21T15:52:51.090Z,3.58
2022-08-21T15:55:18.144Z,3.10
2022-08-21T15:57:58.079Z,2.90
2022-08-21T16:00:26.690Z,3.00
2022-08-21T16:02:58.863Z,3.20
2022-08-21T16:05:26.011Z,3.30
2022-08-21T16:07:53.063Z,3.03
2022-08-21T16:10:22.635Z,3.25
2022-08-21T16:13:01.950Z,3.35
2022-08-21T16:15:28.907Z,2.90
2022-08-21T16:17:55.918Z,2.80
2022-08-21T16:20:27.434Z,3.30
2022-08-21T16:22:55.213Z,3.15
2022-08-21T16:25:22.237Z,3.60
2022-08-21T16:27:54.349Z,3.07
2022-08-21T16:30:24.323Z,3.10
2022-08-21T16:32:51.278Z,3.17
2022-08-21T16:35:20.573Z,2.65
2022-08-21T16:37:52.362Z,3.30
2022-08-21T16:40:20.103Z,3.17
2022-08-21T16:42:47.015Z,2.90
2022-08-21T16:45:15.669Z,2.72
2022-08-21T16:47:43.258Z,3.15
2022-08-21T16:50:15.287Z,3.30
2022-08-21T16:52:42.120Z,3.30
2022-08-21T16:55:09.619Z,3.17
2022-08-21T16:57:36.989Z,3.45
2022-08-21T17:00:08.476Z,2.97
2022-08-21T17:02:37.673Z,3.08
2022-08-21T17:05:06.656Z,3.07
2022-08-21T17:07:40.771Z,3.38
2022-08-21T17:10:08.233Z,3.80
2022-08-21T17:12:35.151Z,3.67
2022-08-21T17:15:07.923Z,3.47
2022-08-21T17:17:35.011Z,2.93
2022-08-21T17:20:02.011Z,3.50
2022-08-21T17:22:28.811Z,3.40
2022-08-21T17:24:55.799Z,3.72
2022-08-21T17:27:26.615Z,3.10
2022-08-21T17:29:54.769Z,3.10
2022-08-21T17:32:21.909Z,2.55
2022-08-21T17:34:48.808Z,2.60
2022-08-21T17:37:15.872Z,2.55
2022-08-21T17:39:43.042Z,2.50
2022-08-21T17:42:12.139Z,2.57
2022-08-21T17:44:42.990Z,2.28
2022-08-21T17:47:10.131Z,2.67
2022-08-21T17:49:37.029Z,3.08
2022-08-21T17:52:04.528Z,3.10
2022-08-21T17:54:31.456Z,3.17
2022-08-21T17:56:58.591Z,3.03
2022-08-21T17:59:25.626Z,3.17
2022-08-21T18:01:52.676Z,2.95
2022-08-21T18:04:19.530Z,2.85
2022-08-21T18:06:46.408Z,2.97
2022-08-21T18:09:13.549Z,3.30
2022-08-21T18:11:42.286Z,2.63
2022-08-21T18:14:09.192Z,2.90
2022-08-21T18:16:37.612Z,2.90
2022-08-21T18:19:09.590Z,3.17
2022-08-21T18:21:36.499Z,3.40
2022-08-21T18:24:03.833Z,3.17
2022-08-21T18:26:36.789Z,3.47
2022-08-21T18:29:05.476Z,3.33
2022-08-21T18:31:33.073Z,3.33
2022-08-21T18:34:01.472Z,3.47
2022-08-21T18:36:29.314Z,3.92
2022-08-21T18:39:13.565Z,3.97
2022-08-21T18:41:44.209Z,3.70
2022-08-21T18:44:11.074Z,3.40
2022-08-21T18:46:37.895Z,3.80
2022-08-21T18:49:04.781Z,3.53
2022-08-21T18:51:31.709Z,3.08
2022-08-21T18:53:58.630Z,2.88
2022-08-21T18:56:25.504Z,2.90
2022-08-21T18:58:57.597Z,3.05
2022-08-21T19:01:25.371Z,2.97
2022-08-21T19:03:52.236Z,3.03
2022-08-21T19:06:19.145Z,2.70
2022-08-21T19:08:46.094Z,2.83
2022-08-21T19:11:12.989Z,2.80
2022-08-21T19:13:40.136Z,2.60
2022-08-21T19:16:09.646Z,2.65
2022-08-21T19:18:40.170Z,2.78
2022-08-21T19:23:54.630Z,2.67
2022-08-21T19:26:26.515Z,2.85
2022-08-21T19:28:55.674Z,2.70
2022-08-21T19:31:32.549Z,2.78
2022-08-21T19:34:04.765Z,2.77
2022-08-21T19:36:32.514Z,2.70
2022-08-21T19:38:59.990Z,2.85
2022-08-21T19:41:28.670Z,2.75
2022-08-21T19:43:57.193Z,2.67
2022-08-21T19:46:29.154Z,2.60
2022-08-21T19:48:56.152Z,2.90
2022-08-21T19:51:24.487Z,2.65
2022-08-21T19:53:55.818Z,2.80
2022-08-21T19:56:25.668Z,2.47
2022-08-21T19:58:52.833Z,2.60
2022-08-21T20:01:20.838Z,2.00
2022-08-21T20:03:53.993Z,1.85
2022-08-21T20:06:22.218Z,1.63
2022-08-21T20:08:51.118Z,1.65
2022-08-21T20:11:22.502Z,2.10
2022-08-21T20:13:49.717Z,2.20
2022-08-21T20:16:17.232Z,1.80
2022-08-21T20:18:44.076Z,2.08
2022-08-21T20:21:13.279Z,1.95
2022-08-21T20:23:48.695Z,2.27
2022-08-21T20:26:16.896Z,2.20
2022-08-21T20:28:44.048Z,2.10
2022-08-21T20:31:11.197Z,2.90
2022-08-21T20:33:42.155Z,2.10
2022-08-21T20:36:09.580Z,2.13
2022-08-21T20:38:36.751Z,2.00
2022-08-21T20:41:10.024Z,2.20
2022-08-21T20:43:48.190Z,2.40
2022-08-21T20:46:21.059Z,2.22
2022-08-21T20:48:49.530Z,2.67
2022-08-21T20:51:39.872Z,2.65
2022-08-21T20:54:44.528Z,2.50
2022-08-21T20:57:18.756Z,2.53
2022-08-21T20:59:53.174Z,2.85
2022-08-21T21:02:29.533Z,2.70
2022-08-21T21:05:16.029Z,2.63
2022-08-21T21:08:06.977Z,2.80
2022-08-21T21:10:55.073Z,3.00
2022-08-21T21:13:28.379Z,2.90
2022-08-21T21:15:57.619Z,3.10
2022-08-21T21:18:36.920Z,2.90
2022-08-21T21:21:15.561Z,3.28
2022-08-21T21:23:56.449Z,3.60
2022-08-21T21:27:00.651Z,3.45
2022-08-21T21:29:34.931Z,3.50
2022-08-21T21:32:03.970Z,3.15
2022-08-21T21:34:35.089Z,3.10
2022-08-21T21:37:08.757Z,3.17
2022-08-21T21:39:42.181Z,3.25
2022-08-21T21:42:19.290Z,3.90
2022-08-21T21:45:00.618Z,3.63
2022-08-21T21:47:48.736Z,4.07
2022-08-21T21:50:34.745Z,3.80
2022-08-21T21:53:19.988Z,3.88
2022-08-21T21:55:59.292Z,3.83
2022-08-21T21:58:44.947Z,3.90
2022-08-21T22:01:27.108Z,3.65
2022-08-21T22:04:03.771Z,3.60
2022-08-21T22:06:52.917Z,3.90
2022-08-21T22:09:34.358Z,3.33
2022-08-21T22:12:28.689Z,3.65
2022-08-21T22:14:55.709Z,3.90
2022-08-21T22:17:49.293Z,3.50
2022-08-21T22:20:27.521Z,3.10
2022-08-21T22:22:55.993Z,3.60
2022-08-21T22:25:26.091Z,4.03
2022-08-21T22:28:25.637Z,3.17
2022-08-21T22:31:10.629Z,3.03
2022-08-21T22:33:37.749Z,3.67
2022-08-21T22:36:15.569Z,3.63
2022-08-21T22:38:43.112Z,3.55
2022-08-21T22:41:15.074Z,4.32
2022-08-21T22:43:52.616Z,3.78
2022-08-21T22:46:26.989Z,4.13
2022-08-21T22:48:58.509Z,3.80
2022-08-21T22:51:34.010Z,3.75
2022-08-21T22:54:00.908Z,3.65
2022-08-21T22:56:30.208Z,3.67
2022-08-21T22:58:59.477Z,3.50
2022-08-21T23:01:26.187Z,4.10
2022-08-21T23:03:57.142Z,3.70
2022-08-21T23:06:46.573Z,4.20
2022-08-21T23:09:36.457Z,3.95
2022-08-21T23:12:23.988Z,3.85
2022-08-21T23:15:12.044Z,3.73
2022-08-21T23:17:58.801Z,4.40
2022-08-21T23:20:28.847Z,3.80
2022-08-21T23:23:34.861Z,4.03
2022-08-21T23:26:41.009Z,4.03
2022-08-21T23:29:39.572Z,4.40
2022-08-21T23:32:35.507Z,4.00
2022-08-21T23:35:10.791Z,3.53
2022-08-21T23:37:58.591Z,3.70
2022-08-21T23:40:50.528Z,3.60
2022-08-21T23:43:38.152Z,3.87
2022-08-21T23:46:11.138Z,3.67
2022-08-21T23:49:06.698Z,3.60
2022-08-21T23:51:53.630Z,4.25
2022-08-21T23:54:57.649Z,3.65
2022-08-21T23:57:42.789Z,3.90
